Georgetown, Ohio
Current Conditions -  °F | °C
As of 8:15 PM on Monday 24 Nov 2014 (Local Time) from KFGX Reporting Station
Scattered Clouds Scattered Clouds  
Wind Chill: 35°   Ceiling: Unl
Heat Index: 41°   Visibility: 10mi
Dew Point: 33°   Wind: 9mph
Humidity: 73%   Direction: 290°WNW
Pressure: 29.89"   Gusts: NA
Location:  38.86°N, 83.9°W
Report Text: KFGX 250115Z AUTO 29008KT 10SM SCT044 05/01 A2989 RMK AO2 T00510007
Loading
Personal Weather Stations






























Interactive Weather Map New forecast layout! Learn more

10-Day Weather Forecast

Advertisements
Track Severe Weather on mobile